createdAt,value
2018-06-18T00:02:11.840Z,1.77
2018-06-18T00:04:40.386Z,1.50
2018-06-18T00:07:08.622Z,1.50
2018-06-18T00:09:36.938Z,1.80
2018-06-18T00:12:06.038Z,1.70
2018-06-18T00:14:35.036Z,1.50
2018-06-18T00:17:03.272Z,1.60
2018-06-18T00:19:31.689Z,1.50
2018-06-18T00:21:59.998Z,1.50
2018-06-18T00:24:28.309Z,1.40
2018-06-18T00:26:56.827Z,1.17
2018-06-18T00:29:25.058Z,1.35
2018-06-18T00:31:53.260Z,1.52
2018-06-18T00:34:22.379Z,1.60
2018-06-18T00:36:50.678Z,1.60
2018-06-18T00:39:19.105Z,1.35
2018-06-18T00:41:47.706Z,1.60
2018-06-18T00:44:15.920Z,1.57
2018-06-18T00:46:44.238Z,1.30
2018-06-18T00:49:12.634Z,1.67
2018-06-18T00:51:40.929Z,1.70
2018-06-18T00:54:09.263Z,1.47
2018-06-18T00:56:38.403Z,1.40
2018-06-18T00:59:06.695Z,1.60
2018-06-18T01:01:34.986Z,1.40
2018-06-18T01:04:03.439Z,1.60
2018-06-18T01:06:31.673Z,1.40
2018-06-18T01:09:01.332Z,1.47
2018-06-18T01:11:29.846Z,1.32
2018-06-18T01:13:58.034Z,1.57
2018-06-18T01:16:26.736Z,1.60
2018-06-18T01:18:55.866Z,1.80
2018-06-18T01:21:24.242Z,1.50
2018-06-18T01:23:56.884Z,1.45
2018-06-18T01:26:25.244Z,1.52
2018-06-18T01:28:53.475Z,1.57
2018-06-18T01:31:22.167Z,1.47
2018-06-18T01:33:51.674Z,1.30
2018-06-18T01:36:19.962Z,1.40
2018-06-18T01:38:48.430Z,1.17
2018-06-18T01:41:16.630Z,1.30
2018-06-18T01:43:44.846Z,1.40
2018-06-18T01:46:13.098Z,1.40
2018-06-18T01:48:41.409Z,1.30
2018-06-18T01:51:09.631Z,1.50
2018-06-18T01:53:38.746Z,1.32
2018-06-18T01:56:06.705Z,1.50
2018-06-18T01:58:35.006Z,1.40
2018-06-18T02:01:03.741Z,1.40
2018-06-18T02:03:32.108Z,1.22
2018-06-18T02:06:00.322Z,1.37
2018-06-18T02:08:30.730Z,1.30
2018-06-18T02:10:58.961Z,1.22
2018-06-18T02:13:27.195Z,1.20
2018-06-18T02:15:55.960Z,1.55
2018-06-18T02:18:24.166Z,1.42
2018-06-18T02:20:52.477Z,1.17
2018-06-18T02:23:20.755Z,1.10
2018-06-18T02:25:49.058Z,1.02
2018-06-18T02:28:23.390Z,1.30
2018-06-18T02:30:56.951Z,1.30
2018-06-18T02:33:30.912Z,1.17
2018-06-18T02:36:04.423Z,1.20
2018-06-18T02:38:37.048Z,1.10
2018-06-18T02:41:14.934Z,1.17
2018-06-18T02:43:43.766Z,1.32
2018-06-18T02:46:11.969Z,1.22
2018-06-18T02:48:40.189Z,1.20
2018-06-18T02:51:08.751Z,1.10
2018-06-18T02:53:36.965Z,1.50
2018-06-18T02:56:06.106Z,1.22
2018-06-18T02:58:34.557Z,1.25
2018-06-18T03:01:02.774Z,1.15
2018-06-18T03:03:30.778Z,1.20
2018-06-18T03:05:59.793Z,1.30
2018-06-18T03:08:29.507Z,1.27
2018-06-18T03:10:57.759Z,1.02
2018-06-18T03:13:26.264Z,1.32
2018-06-18T03:15:54.483Z,1.20
2018-06-18T03:18:28.208Z,1.20
2018-06-18T03:21:01.876Z,1.10
2018-06-18T03:23:36.010Z,1.40
2018-06-18T03:26:09.677Z,1.10
2018-06-18T03:28:43.243Z,1.37
2018-06-18T03:31:11.548Z,1.10
2018-06-18T03:33:39.787Z,1.30
2018-06-18T03:36:08.935Z,1.40
2018-06-18T03:38:37.322Z,1.10
2018-06-18T03:41:05.537Z,1.25
2018-06-18T03:43:36.656Z,1.10
2018-06-18T03:46:05.322Z,1.30
2018-06-18T03:48:33.609Z,1.20
2018-06-18T03:51:02.462Z,1.20
2018-06-18T03:53:30.838Z,1.27
2018-06-18T03:56:00.273Z,1.02
2018-06-18T03:58:28.518Z,1.30
2018-06-18T04:02:16.362Z,1.12
2018-06-18T04:04:59.217Z,1.10
2018-06-18T04:07:32.618Z,1.35
2018-06-18T04:10:12.133Z,1.30
2018-06-18T04:12:41.326Z,1.20
2018-06-18T04:15:15.866Z,1.20
2018-06-18T04:17:44.321Z,1.07
2018-06-18T04:20:12.578Z,1.00
2018-06-18T04:22:40.874Z,1.40
2018-06-18T04:25:09.765Z,1.20
2018-06-18T04:27:38.010Z,1.10
2018-06-18T04:30:06.263Z,1.20
2018-06-18T04:32:34.939Z,1.12
2018-06-18T04:35:05.599Z,1.10
2018-06-18T04:37:33.891Z,1.20
2018-06-18T04:40:02.164Z,1.20
2018-06-18T04:42:36.731Z,1.20
2018-06-18T04:45:10.355Z,1.22
2018-06-18T04:47:44.081Z,1.10
2018-06-18T04:50:17.764Z,1.10
2018-06-18T04:52:46.249Z,1.22
2018-06-18T04:55:14.835Z,1.57
2018-06-18T04:57:42.841Z,1.20
2018-06-18T05:00:26.194Z,1.35
2018-06-18T05:02:54.441Z,1.02
2018-06-18T05:05:22.917Z,1.17
2018-06-18T05:08:00.547Z,1.00
2018-06-18T05:10:29.679Z,1.30
2018-06-18T05:12:57.961Z,1.20
2018-06-18T05:15:33.794Z,1.80
2018-06-18T05:18:02.043Z,1.70
2018-06-18T05:20:30.846Z,1.70
2018-06-18T05:22:59.294Z,1.82
2018-06-18T05:25:27.747Z,1.82
2018-06-18T05:27:56.039Z,1.82
2018-06-18T05:30:28.103Z,2.00
2018-06-18T05:32:56.483Z,1.90
2018-06-18T05:35:24.808Z,1.62
2018-06-18T05:38:00.032Z,2.10
2018-06-18T05:40:28.254Z,3.40
2018-06-18T05:42:56.477Z,2.72
2018-06-18T05:45:25.087Z,2.65
2018-06-18T05:47:53.391Z,2.60
2018-06-18T05:50:21.945Z,2.30
2018-06-18T05:52:50.530Z,2.40
2018-06-18T05:55:18.772Z,2.77
2018-06-18T05:57:47.009Z,2.60
2018-06-18T06:00:15.839Z,2.40
2018-06-18T06:02:44.079Z,2.20
2018-06-18T06:05:12.650Z,2.33
2018-06-18T06:07:45.627Z,2.22
2018-06-18T06:10:13.852Z,2.10
2018-06-18T06:12:42.166Z,2.00
2018-06-18T06:15:10.758Z,2.15
2018-06-18T06:17:39.005Z,1.70
2018-06-18T06:20:07.773Z,2.00
2018-06-18T06:22:36.618Z,1.85
2018-06-18T06:25:04.887Z,1.92
2018-06-18T06:27:33.135Z,1.95
2018-06-18T06:30:01.851Z,2.00
2018-06-18T06:32:30.112Z,2.10
2018-06-18T06:35:01.754Z,1.90
2018-06-18T06:37:30.068Z,1.87
2018-06-18T06:39:58.283Z,1.70
2018-06-18T06:42:27.631Z,1.67
2018-06-18T06:44:55.877Z,1.50
2018-06-18T06:47:24.142Z,1.75
2018-06-18T06:49:52.623Z,2.30
2018-06-18T06:52:20.867Z,1.77
2018-06-18T06:54:49.110Z,1.82
2018-06-18T06:57:18.010Z,1.90
2018-06-18T06:59:46.302Z,1.67
2018-06-18T07:02:14.535Z,1.90
2018-06-18T07:04:45.040Z,1.72
2018-06-18T07:07:16.018Z,1.70
2018-06-18T07:09:45.234Z,1.62
2018-06-18T07:12:13.476Z,1.50
2018-06-18T07:14:41.730Z,1.75
2018-06-18T07:17:09.971Z,1.40
2018-06-18T07:19:38.306Z,1.67
2018-06-18T07:22:06.926Z,1.40
2018-06-18T07:24:35.154Z,1.50
2018-06-18T07:27:03.382Z,1.75
2018-06-18T07:29:32.166Z,2.00
2018-06-18T07:32:00.423Z,1.70
2018-06-18T07:34:28.759Z,1.47
2018-06-18T07:36:57.501Z,1.60
2018-06-18T07:39:25.738Z,1.50
2018-06-18T07:41:54.033Z,1.67
2018-06-18T07:44:22.482Z,1.80
2018-06-18T07:46:50.718Z,1.77
2018-06-18T07:49:19.098Z,1.55
2018-06-18T07:51:48.282Z,1.67
2018-06-18T07:54:16.438Z,1.77
2018-06-18T07:56:44.656Z,1.77
2018-06-18T07:59:13.331Z,1.45
2018-06-18T08:01:41.567Z,1.87
2018-06-18T08:04:09.794Z,1.77
2018-06-18T08:06:38.372Z,1.92
2018-06-18T08:09:09.754Z,1.92
2018-06-18T08:11:38.722Z,2.05
2018-06-18T08:14:07.402Z,1.80
2018-06-18T08:16:35.655Z,2.00
2018-06-18T08:19:04.195Z,1.67
2018-06-18T08:21:32.830Z,1.80
2018-06-18T08:24:01.169Z,1.82
2018-06-18T08:26:29.405Z,2.33
2018-06-18T08:28:58.387Z,2.58
2018-06-18T08:31:26.956Z,2.83
2018-06-18T08:33:55.193Z,2.15
2018-06-18T08:36:23.585Z,2.10
2018-06-18T08:38:51.802Z,2.00
2018-06-18T08:41:20.016Z,2.15
2018-06-18T08:43:48.463Z,2.40
2018-06-18T08:46:16.782Z,2.20
2018-06-18T08:48:53.046Z,1.90
2018-06-18T08:51:26.506Z,2.12
2018-06-18T08:54:00.506Z,1.87
2018-06-18T08:56:34.191Z,2.05
2018-06-18T08:59:08.082Z,2.00
2018-06-18T09:01:42.690Z,2.10
2018-06-18T09:04:19.639Z,1.98
2018-06-18T09:06:48.164Z,2.27
2018-06-18T09:09:17.719Z,2.22
2018-06-18T09:11:46.304Z,1.85
2018-06-18T09:14:14.569Z,1.92
2018-06-18T09:16:43.054Z,2.10
2018-06-18T09:19:11.470Z,2.00
2018-06-18T09:21:39.784Z,1.77
2018-06-18T09:24:08.305Z,2.02
2018-06-18T09:26:36.562Z,2.10
2018-06-18T09:29:04.991Z,2.05
2018-06-18T09:31:34.559Z,1.87
2018-06-18T09:34:02.794Z,2.00
2018-06-18T09:36:31.109Z,1.80
2018-06-18T09:38:59.886Z,2.05
2018-06-18T09:41:28.114Z,1.72
2018-06-18T09:43:56.438Z,1.60
2018-06-18T09:46:24.730Z,1.75
2018-06-18T09:51:07.000Z,1.67
2018-06-18T09:53:41.734Z,1.75
2018-06-18T09:56:15.423Z,1.77
2018-06-18T09:58:49.190Z,1.82
2018-06-18T10:01:22.914Z,1.98
2018-06-18T10:03:51.676Z,2.00
2018-06-18T10:06:21.142Z,1.60
2018-06-18T10:08:49.575Z,9.45
2018-06-18T10:11:17.725Z,13.78
2018-06-18T10:13:47.102Z,11.03
2018-06-18T10:16:16.459Z,11.78
2018-06-18T10:18:44.694Z,14.83
2018-06-18T10:21:13.012Z,18.73
2018-06-18T10:23:41.313Z,23.12
2018-06-18T10:26:09.618Z,26.07
2018-06-18T10:28:37.926Z,28.20
2018-06-18T10:31:06.625Z,29.42
2018-06-18T10:33:40.287Z,30.17
2018-06-18T10:36:13.966Z,32.13
2018-06-18T10:38:47.514Z,34.43
2018-06-18T10:41:21.301Z,31.23
2018-06-18T10:43:49.562Z,33.10
2018-06-18T10:46:17.926Z,30.30
2018-06-18T10:48:47.090Z,32.03
2018-06-18T10:51:15.347Z,32.65
2018-06-18T10:53:43.582Z,30.68
2018-06-18T10:56:12.227Z,30.77
2018-06-18T10:58:40.469Z,31.48
2018-06-18T11:01:12.083Z,30.23
2018-06-18T11:03:40.367Z,30.32
2018-06-18T11:06:14.758Z,29.12
2018-06-18T11:08:45.187Z,28.17
2018-06-18T11:11:13.438Z,28.57
2018-06-18T11:13:41.703Z,22.35
2018-06-18T11:16:10.413Z,5.70
2018-06-18T11:18:44.752Z,7.17
2018-06-18T11:21:18.447Z,39.20
2018-06-18T11:23:52.835Z,27.40
2018-06-18T11:26:26.630Z,12.75
2018-06-18T11:28:55.306Z,16.30
2018-06-18T11:31:23.567Z,17.10
2018-06-18T11:33:51.817Z,17.17
2018-06-18T11:36:20.398Z,18.80
2018-06-18T11:38:48.650Z,20.20
2018-06-18T11:41:16.906Z,21.70
2018-06-18T11:43:46.532Z,24.07
2018-06-18T11:46:14.683Z,25.75
2018-06-18T11:48:42.918Z,24.80
2018-06-18T11:51:11.226Z,26.42
2018-06-18T11:53:39.529Z,27.42
2018-06-18T11:56:07.850Z,26.52
2018-06-18T11:58:41.847Z,26.85
2018-06-18T12:01:15.403Z,26.62
2018-06-18T12:03:50.193Z,26.02
2018-06-18T12:06:23.609Z,25.08
2018-06-18T12:08:59.003Z,24.20
2018-06-18T12:11:27.241Z,24.32
2018-06-18T12:13:55.569Z,25.15
2018-06-18T12:16:24.126Z,24.07
2018-06-18T12:18:52.632Z,24.00
2018-06-18T12:21:20.900Z,23.67
2018-06-18T12:23:49.229Z,23.15
2018-06-18T12:26:17.559Z,23.55
2018-06-18T12:28:45.802Z,23.20
2018-06-18T12:31:14.962Z,23.50
2018-06-18T12:33:43.215Z,21.97
2018-06-18T12:36:11.542Z,21.73
2018-06-18T12:38:40.082Z,22.87
2018-06-18T12:41:09.282Z,22.02
2018-06-18T12:43:39.650Z,20.77
2018-06-18T12:46:13.558Z,19.95
2018-06-18T12:48:47.225Z,20.80
2018-06-18T12:51:21.846Z,21.87
2018-06-18T12:53:55.658Z,20.50
2018-06-18T12:56:29.939Z,16.70
2018-06-18T12:58:58.174Z,17.95
2018-06-18T13:01:28.922Z,18.07
2018-06-18T13:03:57.282Z,18.62
2018-06-18T13:06:25.530Z,18.50
2018-06-18T13:08:54.335Z,18.27
2018-06-18T13:11:22.656Z,17.50
2018-06-18T13:13:50.965Z,18.10
2018-06-18T13:16:19.386Z,17.75
2018-06-18T13:18:48.375Z,17.92
2018-06-18T13:21:16.636Z,17.82
2018-06-18T13:23:45.111Z,16.80
2018-06-18T13:26:13.434Z,17.87
2018-06-18T13:28:41.750Z,16.80
2018-06-18T13:31:10.970Z,16.12
2018-06-18T13:33:39.212Z,17.42
2018-06-18T13:36:07.532Z,16.55
2018-06-18T13:38:43.786Z,15.25
2018-06-18T13:41:17.455Z,17.20
2018-06-18T13:43:51.279Z,15.20
2018-06-18T13:46:24.948Z,17.00
2018-06-18T13:48:56.253Z,15.78
2018-06-18T13:51:25.902Z,16.32
2018-06-18T13:53:54.491Z,16.23
2018-06-18T13:56:23.083Z,15.43
2018-06-18T13:58:51.675Z,15.78
2018-06-18T14:01:21.232Z,16.02
2018-06-18T14:03:49.510Z,14.85
2018-06-18T14:06:17.751Z,15.05
2018-06-18T14:08:48.615Z,14.28
2018-06-18T14:11:16.843Z,14.83
2018-06-18T14:13:45.245Z,14.65
2018-06-18T14:16:13.847Z,15.35
2018-06-18T14:18:42.087Z,14.70
2018-06-18T14:21:10.346Z,14.20
2018-06-18T14:23:38.879Z,14.45
2018-06-18T14:26:07.099Z,14.43
2018-06-18T14:28:35.324Z,14.90
2018-06-18T14:31:12.931Z,15.13
2018-06-18T14:33:46.451Z,13.72
2018-06-18T14:36:20.590Z,15.05
2018-06-18T14:38:54.274Z,14.05
2018-06-18T14:41:22.726Z,13.93
2018-06-18T14:43:51.062Z,13.60
2018-06-18T14:46:19.593Z,14.00
2018-06-18T14:48:49.174Z,13.65
2018-06-18T14:51:17.784Z,13.32
2018-06-18T14:53:46.021Z,13.68
2018-06-18T14:56:20.262Z,13.08
2018-06-18T14:59:30.583Z,12.60
2018-06-18T15:01:59.351Z,13.58
2018-06-18T15:04:27.566Z,12.37
2018-06-18T15:06:55.804Z,13.20
2018-06-18T15:09:25.772Z,12.13
2018-06-18T15:11:53.929Z,6.10
2018-06-18T15:14:22.198Z,3.70
2018-06-18T15:16:50.589Z,2.67
2018-06-18T15:19:18.841Z,2.40
2018-06-18T15:21:51.269Z,2.00
2018-06-18T15:24:26.053Z,2.30
2018-06-18T15:26:54.950Z,4.20
2018-06-18T15:29:23.090Z,3.22
2018-06-18T15:31:51.334Z,3.55
2018-06-18T15:34:19.647Z,4.15
2018-06-18T15:36:47.882Z,4.20
2018-06-18T15:39:16.103Z,4.67
2018-06-18T15:41:44.418Z,5.05
2018-06-18T15:44:12.747Z,5.95
2018-06-18T15:46:40.867Z,6.53
2018-06-18T15:49:10.100Z,6.92
2018-06-18T15:51:38.362Z,7.45
2018-06-18T15:54:06.995Z,7.58
2018-06-18T15:56:35.358Z,8.88
2018-06-18T15:59:03.792Z,6.22
2018-06-18T16:01:32.048Z,7.17
2018-06-18T16:04:01.608Z,6.90
2018-06-18T16:06:29.949Z,7.58
2018-06-18T16:09:04.511Z,8.33
2018-06-18T16:11:33.608Z,7.53
2018-06-18T16:14:01.858Z,7.55
2018-06-18T16:16:30.100Z,7.97
2018-06-18T16:18:58.534Z,7.47
2018-06-18T16:21:26.763Z,7.40
2018-06-18T16:23:55.230Z,7.58
2018-06-18T16:26:24.698Z,7.10
2018-06-18T16:28:53.091Z,7.28
2018-06-18T16:31:21.323Z,8.10
2018-06-18T16:33:49.846Z,7.20
2018-06-18T16:36:18.091Z,7.28
2018-06-18T16:38:46.351Z,7.62
2018-06-18T16:41:16.107Z,7.85
2018-06-18T16:43:44.354Z,7.62
2018-06-18T16:46:12.602Z,7.90
2018-06-18T16:48:41.651Z,7.20
2018-06-18T16:51:10.048Z,6.60
2018-06-18T16:53:38.290Z,7.50
2018-06-18T16:56:06.585Z,7.25
2018-06-18T16:58:34.805Z,7.05
2018-06-18T17:01:03.101Z,6.80
2018-06-18T17:03:31.438Z,6.87
2018-06-18T17:06:00.722Z,6.80
2018-06-18T17:08:30.766Z,7.15
2018-06-18T17:10:59.047Z,7.03
2018-06-18T17:13:27.613Z,6.90
2018-06-18T17:15:56.179Z,7.30
2018-06-18T17:18:24.414Z,6.90
2018-06-18T17:20:52.684Z,6.67
2018-06-18T17:23:21.366Z,6.58
2018-06-18T17:25:49.594Z,7.00
2018-06-18T17:28:17.850Z,6.92
2018-06-18T17:30:46.607Z,6.90
2018-06-18T17:33:14.848Z,6.45
2018-06-18T17:35:43.090Z,6.50
2018-06-18T17:38:11.536Z,6.45
2018-06-18T17:40:39.839Z,6.78
2018-06-18T17:43:08.102Z,6.03
2018-06-18T17:45:36.959Z,5.83
2018-06-18T17:48:05.328Z,6.30
2018-06-18T17:50:33.472Z,6.47
2018-06-18T17:53:02.894Z,5.97
2018-06-18T17:55:31.213Z,6.40
2018-06-18T17:57:59.314Z,6.60
2018-06-18T18:00:27.921Z,6.22
2018-06-18T18:02:56.234Z,6.35
2018-06-18T18:05:24.524Z,5.47
2018-06-18T18:07:54.865Z,6.00
2018-06-18T18:10:23.196Z,6.62
2018-06-18T18:12:51.440Z,6.40
2018-06-18T18:15:19.920Z,6.67
2018-06-18T18:17:48.167Z,7.03
2018-06-18T18:20:16.442Z,6.60
2018-06-18T18:22:44.811Z,7.05
2018-06-18T18:25:13.068Z,6.30
2018-06-18T18:27:41.419Z,7.05
2018-06-18T18:30:10.335Z,7.28
2018-06-18T18:32:38.599Z,6.50
2018-06-18T18:35:06.859Z,6.65
2018-06-18T18:37:35.867Z,6.40
2018-06-18T18:40:04.295Z,6.55
2018-06-18T18:42:32.660Z,6.55
2018-06-18T18:45:01.415Z,6.75
2018-06-18T18:47:29.690Z,6.28
2018-06-18T18:49:57.947Z,7.03
2018-06-18T18:52:27.382Z,7.08
2018-06-18T18:55:32.915Z,7.15
2018-06-18T18:58:14.832Z,6.62
2018-06-18T19:00:44.055Z,6.28
2018-06-18T19:03:12.447Z,6.28
2018-06-18T19:05:40.736Z,6.85
2018-06-18T19:08:13.259Z,7.12
2018-06-18T19:10:42.927Z,6.55
2018-06-18T19:13:14.768Z,6.40
2018-06-18T19:15:43.074Z,6.37
2018-06-18T19:18:11.753Z,6.50
2018-06-18T19:20:51.411Z,5.80
2018-06-18T19:23:20.391Z,6.25
2018-06-18T19:25:49.418Z,6.55
2018-06-18T19:28:18.687Z,5.30
2018-06-18T19:30:52.451Z,6.03
2018-06-18T19:33:25.193Z,5.72
2018-06-18T19:35:53.489Z,5.62
2018-06-18T19:38:21.775Z,6.30
2018-06-18T19:40:52.184Z,5.17
2018-06-18T19:43:20.458Z,5.70
2018-06-18T19:45:52.011Z,5.50
2018-06-18T19:48:23.106Z,5.58
2018-06-18T19:50:51.447Z,5.42
2018-06-18T19:53:19.851Z,5.97
2018-06-18T19:55:47.851Z,4.95
2018-06-18T19:58:16.211Z,5.20
2018-06-18T20:00:48.450Z,5.17
2018-06-18T20:03:16.735Z,5.40
2018-06-18T20:05:45.637Z,5.40
2018-06-18T20:08:20.090Z,4.78
2018-06-18T20:10:48.414Z,5.47
2018-06-18T20:13:16.960Z,5.62
2018-06-18T20:15:45.247Z,5.33
2018-06-18T20:18:13.531Z,5.28
2018-06-18T20:20:41.786Z,5.30
2018-06-18T20:23:12.327Z,4.90
2018-06-18T20:25:51.638Z,4.70
2018-06-18T20:28:20.777Z,5.47
2018-06-18T20:30:49.078Z,5.03
2018-06-18T20:33:18.928Z,4.60
2018-06-18T20:35:56.334Z,5.08
2018-06-18T20:38:24.663Z,4.87
2018-06-18T20:40:52.938Z,4.53
2018-06-18T20:43:23.020Z,4.65
2018-06-18T20:45:51.286Z,4.37
2018-06-18T20:48:19.528Z,4.58
2018-06-18T20:50:47.603Z,4.80
2018-06-18T20:53:15.863Z,4.37
2018-06-18T20:55:44.122Z,5.20
2018-06-18T20:58:13.008Z,4.65
2018-06-18T21:00:41.279Z,4.40
2018-06-18T21:03:09.595Z,4.08
2018-06-18T21:05:38.956Z,4.37
2018-06-18T21:08:08.930Z,4.42
2018-06-18T21:10:37.178Z,4.58
2018-06-18T21:13:05.836Z,4.20
2018-06-18T21:15:34.051Z,4.40
2018-06-18T21:18:02.298Z,4.37
2018-06-18T21:20:30.616Z,3.98
2018-06-18T21:22:58.849Z,4.05
2018-06-18T21:25:27.104Z,4.12
2018-06-18T21:27:56.116Z,4.22
2018-06-18T21:30:24.374Z,4.15
2018-06-18T21:32:52.614Z,3.87
2018-06-18T21:35:21.069Z,4.03
2018-06-18T21:37:49.386Z,4.28
2018-06-18T21:40:17.609Z,4.35
2018-06-18T21:42:46.073Z,3.72
2018-06-18T21:45:19.091Z,3.70
2018-06-18T21:47:48.578Z,3.55
2018-06-18T21:50:17.413Z,3.72
2018-06-18T21:52:45.898Z,4.37
2018-06-18T21:55:14.533Z,3.70
2018-06-18T21:57:42.801Z,3.62
2018-06-18T22:00:20.418Z,3.90
2018-06-18T22:02:48.834Z,3.87
2018-06-18T22:05:17.121Z,3.37
2018-06-18T22:07:47.346Z,3.67
2018-06-18T22:10:15.608Z,3.55
2018-06-18T22:12:43.835Z,3.60
2018-06-18T22:15:12.250Z,3.70
2018-06-18T22:17:40.517Z,3.60
2018-06-18T22:20:08.722Z,3.42
2018-06-18T22:22:37.251Z,3.75
2018-06-18T22:25:05.770Z,3.80
2018-06-18T22:27:34.009Z,3.42
2018-06-18T22:30:03.206Z,3.35
2018-06-18T22:32:31.432Z,3.30
2018-06-18T22:34:59.738Z,3.67
2018-06-18T22:37:28.240Z,3.65
2018-06-18T22:39:56.493Z,3.75
2018-06-18T22:42:24.725Z,3.70
2018-06-18T22:44:53.090Z,3.35
2018-06-18T22:47:21.311Z,3.40
2018-06-18T22:49:49.549Z,3.70
2018-06-18T22:52:18.221Z,3.65
2018-06-18T22:54:48.777Z,3.62
2018-06-18T22:57:17.671Z,3.75
2018-06-18T22:59:47.082Z,3.50
2018-06-18T23:02:19.367Z,3.58
2018-06-18T23:04:47.730Z,3.20
2018-06-18T23:07:15.958Z,3.02
2018-06-18T23:09:46.707Z,3.00
2018-06-18T23:12:16.213Z,3.42
2018-06-18T23:14:44.703Z,3.27
2018-06-18T23:17:13.002Z,3.65
2018-06-18T23:19:41.654Z,3.33
2018-06-18T23:22:09.885Z,3.15
2018-06-18T23:24:38.117Z,3.37
2018-06-18T23:27:07.715Z,3.25
2018-06-18T23:29:35.929Z,2.92
2018-06-18T23:32:04.187Z,3.02
2018-06-18T23:34:32.655Z,3.20
2018-06-18T23:37:00.865Z,3.20
2018-06-18T23:39:29.085Z,3.00
2018-06-18T23:41:58.298Z,2.80
2018-06-18T23:44:26.614Z,3.20
2018-06-18T23:46:54.839Z,2.70
2018-06-18T23:49:23.335Z,3.12
2018-06-18T23:51:51.591Z,3.17
2018-06-18T23:54:19.862Z,2.72
2018-06-18T23:56:48.365Z,3.25
2018-06-18T23:59:16.585Z,2.67
